Time;durP1;ratioP1;P1;durP2;ratioP2;P2;SDS_P1;SDS_P2;PMS_P1;PMS_P2;Temp;Humidity;BMP_temperature;BMP_pressure;BME280_temperature;BME280_humidity;BME280_pressure;Samples;Min_cycle;Max_cycle;Signal;HPM_P1;HPM_P2
2021/11/19 00:02:09;;;;;;;;;;;;;;;4.16;83.24;100527.59;1689519;84;20241;-64
2021/11/19 00:04:37;;;;;;;;;;;;;;;4.13;83.23;100523.33;1689179;85;21043;-62
2021/11/19 00:07:06;;;;;;;;;;;;;;;4.11;83.23;100522.13;1689260;85;20209;-65
2021/11/19 00:09:35;;;;;;;;;;;;;;;4.13;83.18;100521.47;1689330;85;20317;-64
2021/11/19 00:12:06;;;;;;;;;;;;;;;4.13;83.12;100518.76;1689303;85;20566;-64
2021/11/19 00:14:35;;;;;;;;;;;;;;;4.13;83.02;100517.41;1689207;85;20304;-63
2021/11/19 00:17:05;;;;;;;;;;;;;;;4.13;82.99;100518.76;1689279;85;20173;-65
2021/11/19 00:19:38;;;;;;;;;;;;;;;4.14;82.91;100513.69;1689411;85;20229;-63
2021/11/19 00:22:08;;;;;;;;;;;;;;;4.14;82.91;100510.97;1680640;85;20572;-64
2021/11/19 00:24:36;;;;;;;;;;;;;;;4.14;82.80;100511.47;1678346;85;20507;-63
2021/11/19 00:27:05;;;;;;;;;;;;;;;4.12;82.74;100512.13;1689376;85;20237;-64
2021/11/19 00:29:33;;;;;;;;;;;;;;;4.07;82.63;100513.09;1689391;85;20508;-64
2021/11/19 00:32:01;;;;;;;;;;;;;;;4.06;82.71;100510.03;1689278;85;20515;-64
2021/11/19 00:34:32;;;;;;;;;;;;;;;4.03;82.77;100507.63;1689402;85;20256;-68
2021/11/19 00:37:00;;;;;;;;;;;;;;;4.00;82.89;100503.37;1689335;85;20256;-65
2021/11/19 00:39:28;;;;;;;;;;;;;;;3.96;83.01;100501.97;1689440;85;20248;-63
2021/11/19 00:41:57;;;;;;;;;;;;;;;3.97;83.11;100498.25;1689329;84;20632;-63
2021/11/19 00:44:26;;;;;;;;;;;;;;;3.97;83.16;100496.05;1689329;85;20253;-64
2021/11/19 00:46:54;;;;;;;;;;;;;;;3.97;83.13;100487.41;1689382;85;20185;-65
2021/11/19 00:49:26;;;;;;;;;;;;;;;3.99;83.16;100491.32;1689432;84;20188;-64
2021/11/19 00:51:55;;;;;;;;;;;;;;;4.00;83.17;100487.10;1689834;85;20186;-63
2021/11/19 00:54:25;;;;;;;;;;;;;;;4.02;83.21;100483.73;1689357;85;20233;-64
2021/11/19 00:56:56;;;;;;;;;;;;;;;4.01;83.32;100479.31;1689250;85;20240;-64
2021/11/19 00:59:27;;;;;;;;;;;;;;;3.97;83.54;100472.50;1689391;85;20210;-64
2021/11/19 01:02:10;;;;;;;;;;;;;;;3.96;83.71;100470.80;1689535;85;20267;-64
2021/11/19 01:04:38;;;;;;;;;;;;;;;4.00;83.75;100469.48;1689375;85;20245;-64
2021/11/19 01:07:07;;;;;;;;;;;;;;;4.02;83.76;100472.03;1689271;85;20181;-64
2021/11/19 01:09:38;;;;;;;;;;;;;;;4.05;83.77;100469.02;1689251;85;20209;-63
2021/11/19 01:12:07;;;;;;;;;;;;;;;4.06;83.81;100463.44;1689388;85;20239;-64
2021/11/19 01:14:38;;;;;;;;;;;;;;;4.05;83.87;100461.73;1669949;85;20189;-64
2021/11/19 01:17:13;;;;;;;;;;;;;;;4.04;83.92;100460.03;1689483;85;20280;-63
2021/11/19 01:19:48;;;;;;;;;;;;;;;4.04;83.93;100454.61;1689522;85;20193;-63
2021/11/19 01:22:20;;;;;;;;;;;;;;;4.07;83.99;100451.59;1689368;85;20218;-63
2021/11/19 01:24:48;;;;;;;;;;;;;;;4.09;83.99;100445.51;1689449;85;20193;-65
2021/11/19 01:27:18;;;;;;;;;;;;;;;4.11;83.97;100447.56;1689268;85;20181;-63
2021/11/19 01:29:47;;;;;;;;;;;;;;;4.09;83.95;100439.23;1689332;85;20308;-64
2021/11/19 01:32:19;;;;;;;;;;;;;;;4.09;83.92;100433.81;1689311;85;20228;-68
2021/11/19 01:34:56;;;;;;;;;;;;;;;4.09;83.87;100433.81;1680616;85;20557;-63
2021/11/19 01:37:45;;;;;;;;;;;;;;;4.11;83.86;100442.14;1688186;85;20651;-65
2021/11/19 01:40:24;;;;;;;;;;;;;;;4.14;83.79;100436.91;1688044;84;20527;-65
2021/11/19 01:43:03;;;;;;;;;;;;;;;4.14;83.74;100430.98;1689589;85;20578;-64
2021/11/19 01:45:35;;;;;;;;;;;;;;;4.13;83.71;100426.56;1685696;84;20202;-65
2021/11/19 01:48:08;;;;;;;;;;;;;;;4.14;83.71;100428.27;1689383;85;20300;-63
2021/11/19 01:50:44;;;;;;;;;;;;;;;4.16;83.65;100424.55;1689447;85;20197;-66
2021/11/19 01:53:19;;;;;;;;;;;;;;;4.17;83.61;100423.54;1685248;84;20602;-63
2021/11/19 01:55:59;;;;;;;;;;;;;;;4.16;83.61;100427.27;1689296;84;20187;-64
2021/11/19 01:58:37;;;;;;;;;;;;;;;4.17;83.62;100422.19;1689616;85;20539;-64
2021/11/19 02:01:15;;;;;;;;;;;;;;;4.17;83.61;100418.12;1688971;85;20209;-63
2021/11/19 02:03:48;;;;;;;;;;;;;;;4.20;83.57;100411.88;1669765;85;20245;-63
2021/11/19 02:06:20;;;;;;;;;;;;;;;4.25;83.49;100410.05;1688869;85;20514;-64
2021/11/19 02:08:50;;;;;;;;;;;;;;;4.25;83.33;100409.55;1689383;85;20218;-64
2021/11/19 02:11:35;;;;;;;;;;;;;;;4.24;83.30;100409.70;1689547;84;20595;-64
2021/11/19 02:14:32;;;;;;;;;;;;;;;4.23;83.24;100403.43;1688479;85;20185;-64
2021/11/19 02:17:00;;;;;;;;;;;;;;;4.23;83.18;100405.29;1689533;85;20318;-64
2021/11/19 02:19:35;;;;;;;;;;;;;;;4.24;83.04;100407.84;1689443;84;20569;-63
2021/11/19 02:22:11;;;;;;;;;;;;;;;4.27;82.98;100402.11;1689452;85;20186;-63
2021/11/19 02:24:49;;;;;;;;;;;;;;;4.28;82.82;100398.89;1689329;85;20507;-64
2021/11/19 02:27:44;;;;;;;;;;;;;;;4.28;82.79;100390.25;1670779;85;20225;-65
2021/11/19 02:30:23;;;;;;;;;;;;;;;4.30;82.72;100402.30;1688713;85;20507;-63
2021/11/19 02:32:58;;;;;;;;;;;;;;;4.31;82.66;100403.50;1689260;85;20221;-65
2021/11/19 02:35:31;;;;;;;;;;;;;;;4.35;82.58;100398.61;1640731;85;20193;-64
2021/11/19 02:38:02;;;;;;;;;;;;;;;4.36;82.33;100390.81;1689378;85;20491;-64
2021/11/19 02:40:33;;;;;;;;;;;;;;;4.35;82.26;100383.19;1689156;85;20270;-65
2021/11/19 02:43:05;;;;;;;;;;;;;;;4.36;82.14;100385.39;1689070;84;20572;-63
2021/11/19 02:45:40;;;;;;;;;;;;;;;4.37;82.08;100376.24;1689466;85;20193;-63
2021/11/19 02:48:11;;;;;;;;;;;;;;;4.35;81.88;100375.55;1689263;85;20218;-64
2021/11/19 02:50:40;;;;;;;;;;;;;;;4.31;81.82;100375.02;1689476;85;20557;-63
2021/11/19 02:53:08;;;;;;;;;;;;;;;4.28;81.75;100381.27;1688344;85;20227;-63
2021/11/19 02:55:38;;;;;;;;;;;;;;;4.28;81.63;100391.61;1688538;84;20613;-63
2021/11/19 02:58:08;;;;;;;;;;;;;;;4.29;81.55;100389.75;1682747;85;20238;-63
2021/11/19 03:00:43;;;;;;;;;;;;;;;4.26;81.47;100392.77;1682732;85;20185;-64
2021/11/19 03:03:14;;;;;;;;;;;;;;;4.23;81.44;100395.80;1682601;84;20253;-64
2021/11/19 03:05:44;;;;;;;;;;;;;;;4.18;81.47;100392.70;1665332;85;20220;-65
2021/11/19 03:08:13;;;;;;;;;;;;;;;4.14;81.56;100394.38;1682630;85;20186;-63
2021/11/19 03:10:44;;;;;;;;;;;;;;;4.15;81.62;100385.73;1682884;85;20383;-65
2021/11/19 03:13:13;;;;;;;;;;;;;;;4.13;81.63;100379.11;1689588;85;20185;-64
2021/11/19 03:15:44;;;;;;;;;;;;;;;4.12;81.56;100369.28;1689619;84;20249;-64
2021/11/19 03:18:17;;;;;;;;;;;;;;;4.07;81.62;100363.98;1689570;85;20535;-64
2021/11/19 03:20:48;;;;;;;;;;;;;;;4.08;81.76;100364.33;1662419;85;20597;-63
2021/11/19 03:23:16;;;;;;;;;;;;;;;4.08;81.75;100349.41;1689571;85;20210;-63
2021/11/19 03:25:45;;;;;;;;;;;;;;;4.05;81.81;100343.80;1689908;84;20541;-64
2021/11/19 03:28:15;;;;;;;;;;;;;;;4.03;81.81;100339.05;1689609;85;20205;-64
2021/11/19 03:30:45;;;;;;;;;;;;;;;4.01;81.88;100334.78;1662361;85;20518;-65
2021/11/19 03:33:17;;;;;;;;;;;;;;;4.02;81.90;100332.42;1686988;84;20515;-63
2021/11/19 03:35:46;;;;;;;;;;;;;;;4.04;81.92;100329.91;1680245;85;20265;-65
2021/11/19 03:38:15;;;;;;;;;;;;;;;4.11;81.91;100332.83;1680303;85;20328;-64
2021/11/19 03:40:45;;;;;;;;;;;;;;;4.13;81.86;100338.45;1680105;85;20309;-63
2021/11/19 03:43:16;;;;;;;;;;;;;;;4.16;81.84;100344.56;1680118;84;20236;-63
2021/11/19 03:45:48;;;;;;;;;;;;;;;4.17;81.77;100340.84;1679881;85;20314;-65
2021/11/19 03:48:17;;;;;;;;;;;;;;;4.17;81.73;100331.35;1680122;85;20300;-64
2021/11/19 03:50:48;;;;;;;;;;;;;;;4.17;81.68;100335.42;1680281;85;20565;-65
2021/11/19 03:53:17;;;;;;;;;;;;;;;4.11;81.67;100328.77;1680344;85;20214;-63
2021/11/19 03:55:48;;;;;;;;;;;;;;;4.11;81.75;100332.33;1680515;84;20190;-65
2021/11/19 03:58:19;;;;;;;;;;;;;;;4.10;81.81;100321.13;1660938;85;20484;-64
2021/11/19 04:00:51;;;;;;;;;;;;;;;4.06;81.90;100313.48;1680105;84;20197;-68
2021/11/19 04:03:21;;;;;;;;;;;;;;;4.01;82.01;100308.53;1680151;85;20274;-63
2021/11/19 04:05:50;;;;;;;;;;;;;;;3.99;82.13;100314.61;1680386;85;20197;-63
2021/11/19 04:08:22;;;;;;;;;;;;;;;3.98;82.19;100302.58;1680117;84;20181;-64
2021/11/19 04:10:54;;;;;;;;;;;;;;;3.96;82.24;100300.02;1680219;85;20186;-64
2021/11/19 04:13:23;;;;;;;;;;;;;;;3.94;82.32;100297.97;1680391;85;20546;-63
2021/11/19 04:15:55;;;;;;;;;;;;;;;3.94;82.46;100296.61;1680046;85;20182;-63
2021/11/19 04:18:23;;;;;;;;;;;;;;;3.93;82.55;100285.43;1680370;85;20253;-64
2021/11/19 04:20:52;;;;;;;;;;;;;;;3.94;82.67;100285.77;1680363;85;20246;-66
2021/11/19 04:23:22;;;;;;;;;;;;;;;3.95;82.69;100276.63;1679997;84;20178;-65
2021/11/19 04:25:52;;;;;;;;;;;;;;;4.00;82.70;100282.43;1679998;85;20218;-63
2021/11/19 04:28:20;;;;;;;;;;;;;;;4.04;82.69;100287.87;1680012;85;20595;-66
2021/11/19 04:31:03;;;;;;;;;;;;;;;4.07;82.63;100288.07;1611542;88;20163;-66
2021/11/19 04:33:33;;;;;;;;;;;;;;;4.05;82.64;100270.61;1610237;88;20222;-64
2021/11/19 04:36:02;;;;;;;;;;;;;;;4.04;82.63;100270.77;1611676;88;20199;-64
2021/11/19 04:38:31;;;;;;;;;;;;;;;4.05;82.68;100266.54;1614636;88;20216;-65
2021/11/19 04:40:59;;;;;;;;;;;;;;;4.07;82.67;100260.45;1574666;90;20193;-64
2021/11/19 04:43:30;;;;;;;;;;;;;;;4.08;82.63;100255.38;1612941;87;20274;-64
2021/11/19 04:45:59;;;;;;;;;;;;;;;4.12;82.62;100256.76;1613486;87;20213;-63
2021/11/19 04:48:34;;;;;;;;;;;;;;;4.13;82.59;100259.81;1617068;88;20468;-66
2021/11/19 04:51:03;;;;;;;;;;;;;;;4.15;82.60;100261.01;1611506;88;20155;-64
2021/11/19 04:53:33;;;;;;;;;;;;;;;4.16;82.58;100255.08;1604028;88;20227;-64
2021/11/19 04:56:02;;;;;;;;;;;;;;;4.16;82.59;100259.15;1604740;88;20505;-64
2021/11/19 04:58:32;;;;;;;;;;;;;;;4.18;82.57;100262.55;1619729;88;20231;-69
2021/11/19 05:01:04;;;;;;;;;;;;;;;4.18;82.42;100262.55;1620161;89;20163;-65
2021/11/19 05:03:38;;;;;;;;;;;;;;;4.19;82.39;100256.11;1572629;89;20178;-63
2021/11/19 05:06:07;;;;;;;;;;;;;;;4.21;82.36;100260.87;1625914;85;20533;-64
2021/11/19 05:08:36;;;;;;;;;;;;;;;4.19;82.38;100265.61;1689406;85;20194;-63
2021/11/19 05:11:05;;;;;;;;;;;;;;;4.16;82.38;100264.06;1689079;85;20237;-64
2021/11/19 05:13:36;;;;;;;;;;;;;;;4.14;82.45;100256.09;1689236;85;20197;-64
2021/11/19 05:16:08;;;;;;;;;;;;;;;4.15;82.46;100248.80;1689282;85;20189;-63
2021/11/19 05:18:37;;;;;;;;;;;;;;;4.17;82.39;100250.00;1689299;85;20587;-64
2021/11/19 05:21:06;;;;;;;;;;;;;;;4.18;82.34;100247.64;1689342;85;20253;-63
2021/11/19 05:23:36;;;;;;;;;;;;;;;4.17;82.30;100245.44;1689228;85;20233;-62
2021/11/19 05:26:05;;;;;;;;;;;;;;;4.19;82.30;100252.90;1689499;84;20213;-65
2021/11/19 05:28:35;;;;;;;;;;;;;;;4.18;82.33;100245.77;1689302;85;20241;-64
2021/11/19 05:31:04;;;;;;;;;;;;;;;4.22;82.34;100238.17;1689159;85;20283;-63
2021/11/19 05:33:34;;;;;;;;;;;;;;;4.24;82.33;100238.86;1689334;85;20561;-64
2021/11/19 05:36:02;;;;;;;;;;;;;;;4.25;82.30;100241.92;1689024;85;20214;-64
2021/11/19 05:38:37;;;;;;;;;;;;;;;4.25;82.26;100233.78;1689305;85;20288;-64
2021/11/19 05:41:05;;;;;;;;;;;;;;;4.24;82.28;100234.28;1689126;85;20624;-64
2021/11/19 05:43:38;;;;;;;;;;;;;;;4.26;82.33;100249.04;1670077;85;20222;-65
2021/11/19 05:46:08;;;;;;;;;;;;;;;4.27;82.35;100243.45;1689145;84;20189;-65
2021/11/19 05:48:49;;;;;;;;;;;;;;;4.28;82.32;100241.59;1669282;85;20503;-65
2021/11/19 05:51:18;;;;;;;;;;;;;;;4.25;82.39;100238.70;1689052;85;20234;-65
2021/11/19 05:53:47;;;;;;;;;;;;;;;4.23;82.50;100229.02;1689444;85;20545;-65
2021/11/19 05:56:17;;;;;;;;;;;;;;;4.23;82.58;100230.37;1669823;85;20527;-69
2021/11/19 05:58:46;;;;;;;;;;;;;;;4.24;82.64;100229.37;1689236;85;20194;-65
2021/11/19 06:01:18;;;;;;;;;;;;;;;4.24;82.63;100231.57;1688383;85;20214;-65
2021/11/19 06:03:48;;;;;;;;;;;;;;;4.24;82.62;100223.95;1688545;85;20229;-65
2021/11/19 06:06:24;;;;;;;;;;;;;;;4.26;82.65;100228.70;1686991;85;20233;-65
2021/11/19 06:09:08;;;;;;;;;;;;;;;4.25;82.79;100218.86;1689345;85;20211;-66
2021/11/19 06:11:44;;;;;;;;;;;;;;;4.25;82.90;100216.16;1689427;85;20217;-65
2021/11/19 06:14:16;;;;;;;;;;;;;;;4.24;83.08;100213.95;1689216;85;20249;-65
2021/11/19 06:16:47;;;;;;;;;;;;;;;4.25;83.29;100209.38;1689308;85;20236;-64
2021/11/19 06:19:19;;;;;;;;;;;;;;;4.24;83.41;100210.39;1689252;85;20197;-66
2021/11/19 06:21:51;;;;;;;;;;;;;;;4.23;83.58;100207.33;1689352;84;20269;-65
2021/11/19 06:24:23;;;;;;;;;;;;;;;4.19;83.76;100194.59;1689354;85;20300;-66
2021/11/19 06:26:53;;;;;;;;;;;;;;;4.20;83.90;100194.95;1689141;85;20264;-65
2021/11/19 06:29:23;;;;;;;;;;;;;;;4.19;84.09;100194.59;1689340;84;20535;-65
2021/11/19 06:31:54;;;;;;;;;;;;;;;4.18;84.22;100187.98;1689533;85;20274;-65
2021/11/19 06:34:25;;;;;;;;;;;;;;;4.20;84.44;100187.31;1689407;85;20545;-65
2021/11/19 06:36:55;;;;;;;;;;;;;;;4.18;84.55;100181.20;1689464;84;20491;-67
2021/11/19 06:39:26;;;;;;;;;;;;;;;4.16;84.65;100169.67;1688884;85;20186;-66
2021/11/19 06:41:57;;;;;;;;;;;;;;;4.16;84.83;100165.61;1689069;84;20253;-65
2021/11/19 06:44:34;;;;;;;;;;;;;;;4.16;85.00;100169.67;1686116;85;20260;-66
2021/11/19 06:47:08;;;;;;;;;;;;;;;4.17;85.09;100160.53;1688397;85;20246;-66
2021/11/19 06:49:44;;;;;;;;;;;;;;;4.19;85.17;100158.50;1689124;85;20617;-64
2021/11/19 06:52:14;;;;;;;;;;;;;;;4.18;85.27;100153.58;1683622;84;20182;-66
2021/11/19 06:54:48;;;;;;;;;;;;;;;4.18;85.39;100152.73;1686452;85;20221;-66
2021/11/19 06:57:22;;;;;;;;;;;;;;;4.16;85.52;100138.48;1677452;84;20185;-65
2021/11/19 06:59:51;;;;;;;;;;;;;;;4.14;85.67;100132.73;1691939;85;20225;-66
2021/11/19 07:02:20;;;;;;;;;;;;;;;4.13;85.82;100137.80;1689114;85;20185;-67
2021/11/19 07:04:48;;;;;;;;;;;;;;;4.16;85.93;100129.00;1689585;85;20250;-65
2021/11/19 07:07:17;;;;;;;;;;;;;;;4.19;86.00;100125.97;1689142;85;20555;-66
2021/11/19 07:09:46;;;;;;;;;;;;;;;4.22;86.14;100120.21;1689018;85;20253;-66
2021/11/19 07:12:17;;;;;;;;;;;;;;;4.26;86.23;100124.30;1689107;84;20601;-65
2021/11/19 07:14:53;;;;;;;;;;;;;;;4.25;86.28;100121.23;1688132;85;20563;-65
2021/11/19 07:17:22;;;;;;;;;;;;;;;4.23;86.43;100116.48;1688971;85;20314;-65
2021/11/19 07:19:51;;;;;;;;;;;;;;;4.24;86.58;100116.83;1689330;85;20510;-64
2021/11/19 07:22:20;;;;;;;;;;;;;;;4.24;86.69;100119.55;1688965;85;20281;-66
2021/11/19 07:24:52;;;;;;;;;;;;;;;4.24;86.78;100110.05;1684655;85;20545;-72
2021/11/19 07:27:21;;;;;;;;;;;;;;;4.28;86.90;100112.78;1689274;85;20624;-67
2021/11/19 07:29:51;;;;;;;;;;;;;;;4.30;86.98;100102.61;1689361;85;20265;-67
2021/11/19 07:32:38;;;;;;;;;;;;;;;4.30;87.00;100101.26;1689238;85;20323;-68
2021/11/19 07:35:14;;;;;;;;;;;;;;;4.31;87.12;100098.89;1688375;85;20233;-68
2021/11/19 07:38:01;;;;;;;;;;;;;;;4.31;87.21;100100.24;1689517;84;20228;-67
2021/11/19 07:40:38;;;;;;;;;;;;;;;4.34;87.33;100090.42;1687762;84;20218;-68
2021/11/19 07:43:12;;;;;;;;;;;;;;;4.37;87.33;100092.80;1688411;85;20193;-67
2021/11/19 07:45:43;;;;;;;;;;;;;;;4.39;87.39;100086.70;1686009;85;20265;-69
2021/11/19 07:48:22;;;;;;;;;;;;;;;4.42;87.48;100083.16;1688251;85;20265;-66
2021/11/19 07:50:52;;;;;;;;;;;;;;;4.45;87.55;100079.26;1687050;85;20519;-68
2021/11/19 07:53:21;;;;;;;;;;;;;;;4.47;87.57;100078.59;1689226;84;20232;-68
2021/11/19 07:55:51;;;;;;;;;;;;;;;4.46;87.61;100077.73;1689213;84;20213;-67
2021/11/19 07:58:20;;;;;;;;;;;;;;;4.49;87.66;100077.06;1688079;85;20218;-68
2021/11/19 08:00:48;;;;;;;;;;;;;;;4.50;87.67;100079.61;1687944;85;20185;-68
2021/11/19 08:03:17;;;;;;;;;;;;;;;4.52;87.68;100078.94;1689310;85;20233;-68
2021/11/19 08:05:52;;;;;;;;;;;;;;;4.57;87.77;100071.69;1689158;84;20261;-69
2021/11/19 08:08:26;;;;;;;;;;;;;;;4.59;87.81;100073.21;1689070;85;20174;-67
2021/11/19 08:11:08;;;;;;;;;;;;;;;4.59;87.86;100061.00;1689057;85;20205;-68
2021/11/19 08:13:37;;;;;;;;;;;;;;;4.60;87.86;100060.50;1689300;85;20249;-68
2021/11/19 08:16:06;;;;;;;;;;;;;;;4.60;87.90;100055.92;1689126;84;20233;-67
2021/11/19 08:18:46;;;;;;;;;;;;;;;4.62;87.93;100057.95;1672948;85;20291;-67
2021/11/19 08:21:15;;;;;;;;;;;;;;;4.63;87.92;100050.16;1689141;85;20498;-67
2021/11/19 08:23:47;;;;;;;;;;;;;;;4.67;88.01;100050.16;1689432;85;20209;-68
2021/11/19 08:26:19;;;;;;;;;;;;;;;4.70;88.05;100041.68;1689175;84;20269;-69
2021/11/19 08:28:47;;;;;;;;;;;;;;;4.74;88.14;100044.39;1689025;85;20225;-70
2021/11/19 08:31:18;;;;;;;;;;;;;;;4.78;88.26;100036.77;1689390;85;20580;-69
2021/11/19 08:33:48;;;;;;;;;;;;;;;4.78;88.27;100024.04;1689310;85;20214;-68
2021/11/19 08:36:18;;;;;;;;;;;;;;;4.80;88.33;100016.23;1689150;85;20234;-68
2021/11/19 08:38:46;;;;;;;;;;;;;;;4.83;88.36;100014.03;1689155;85;20559;-67
2021/11/19 08:41:15;;;;;;;;;;;;;;;4.84;88.34;100008.09;1689149;85;20222;-70
2021/11/19 08:43:45;;;;;;;;;;;;;;;4.86;88.39;100007.41;1689407;85;20217;-68
2021/11/19 08:46:17;;;;;;;;;;;;;;;4.88;88.46;99999.95;1689195;85;20209;-68
2021/11/19 08:48:49;;;;;;;;;;;;;;;4.90;88.56;100003.34;1689409;85;20554;-68
2021/11/19 08:51:19;;;;;;;;;;;;;;;4.92;88.73;99995.36;1689266;85;20241;-67
2021/11/19 08:53:50;;;;;;;;;;;;;;;4.96;88.77;99987.72;1689360;85;20292;-68
2021/11/19 08:59:25;;;;;;;;;;;;;;;4.99;88.72;99980.59;1694544;83;20215;-58
2021/11/19 09:02:06;;;;;;;;;;;;;;;5.00;88.71;99966.00;1684574;85;20480;-61
2021/11/19 09:07:23;;;;;;;;;;;;;;;5.00;88.63;99955.98;1657135;87;20168;-59
2021/11/19 09:09:54;;;;;;;;;;;;;;;4.99;88.70;99956.16;1657029;87;20197;-58
2021/11/19 09:12:29;;;;;;;;;;;;;;;4.99;88.79;99949.38;1657000;87;20536;-60
2021/11/19 09:14:58;;;;;;;;;;;;;;;5.01;88.86;99946.82;1689570;83;20564;-59
2021/11/19 09:17:52;;;;;;;;;;;;;;;5.02;88.87;99940.37;1708247;84;20478;-57
2021/11/19 09:20:43;;;;;;;;;;;;;;;5.04;89.03;99936.12;1708475;83;20189;-58
2021/11/19 09:23:16;;;;;;;;;;;;;;;5.12;89.27;99940.69;1708492;83;20518;-57
2021/11/19 09:25:47;;;;;;;;;;;;;;;5.15;89.24;99934.91;1708532;84;20212;-57
2021/11/19 09:28:17;;;;;;;;;;;;;;;5.16;89.22;99932.02;1708261;83;20466;-58
2021/11/19 09:30:50;;;;;;;;;;;;;;;5.15;89.16;99924.89;1706016;83;20236;-59
2021/11/19 09:33:21;;;;;;;;;;;;;;;5.14;89.13;99919.63;1651124;86;20486;-60
2021/11/19 09:35:54;;;;;;;;;;;;;;;5.16;89.10;99917.08;1684752;85;20511;-59
2021/11/19 09:39:00;;;;;;;;;;;;;;;5.16;89.04;99917.08;1661570;85;20226;-58
2021/11/19 09:41:39;;;;;;;;;;;;;;;5.16;89.12;99913.01;1675523;85;20207;-59
2021/11/19 09:44:20;;;;;;;;;;;;;;;5.18;89.28;99902.81;1677531;85;20187;-59
2021/11/19 09:47:12;;;;;;;;;;;;;;;5.21;89.31;99904.37;1684739;85;20468;-60
2021/11/19 09:49:58;;;;;;;;;;;;;;;5.22;89.27;99899.27;1684492;85;20257;-58
2021/11/19 09:52:52;;;;;;;;;;;;;;;5.22;89.35;99890.61;1684607;85;20198;-59
2021/11/19 09:55:34;;;;;;;;;;;;;;;5.24;89.35;99887.72;1683437;84;20504;-59
2021/11/19 09:58:28;;;;;;;;;;;;;;;5.29;89.50;99881.25;1687850;83;20267;-63
2021/11/19 10:01:21;;;;;;;;;;;;;;;5.31;89.51;99873.26;1708568;83;20264;-59
2021/11/19 10:04:27;;;;;;;;;;;;;;;5.33;89.54;99864.93;1708675;84;20450;-60
2021/11/19 10:07:07;;;;;;;;;;;;;;;5.31;89.53;99855.60;1689519;83;20508;-62
2021/11/19 10:09:40;;;;;;;;;;;;;;;5.33;89.62;99845.92;1686108;84;20174;-60
2021/11/19 10:12:21;;;;;;;;;;;;;;;5.35;89.64;99847.43;1687407;85;20522;-61
2021/11/19 10:15:07;;;;;;;;;;;;;;;5.40;89.65;99836.03;1688142;84;20532;-60
2021/11/19 10:17:43;;;;;;;;;;;;;;;5.47;89.67;99838.88;1687480;84;20141;-60
2021/11/19 10:20:16;;;;;;;;;;;;;;;5.49;89.62;99834.11;1687408;84;20181;-60
2021/11/19 10:23:11;;;;;;;;;;;;;;;5.47;89.59;99828.02;1686960;84;20180;-61
2021/11/19 10:25:54;;;;;;;;;;;;;;;5.46;89.59;99827.68;1687635;85;20467;-61
2021/11/19 10:28:27;;;;;;;;;;;;;;;5.51;89.86;99817.97;1687364;85;20283;-60
2021/11/19 10:30:56;;;;;;;;;;;;;;;5.56;89.61;99821.50;1686615;84;20158;-62
2021/11/19 10:33:28;;;;;;;;;;;;;;;5.56;89.55;99811.99;1679841;85;20496;-79
2021/11/19 10:36:17;;;;;;;;;;;;;;;5.56;89.42;99812.84;1679849;84;20163;-61
2021/11/19 10:41:58;;;;;;;;;;;;;;;5.55;89.36;99800.79;1631202;87;20273;-61
2021/11/19 10:51:10;;;;;;;;;;;;;;;5.73;89.56;99789.95;1640021;87;20207;-62
2021/11/19 10:54:04;;;;;;;;;;;;;;;5.72;89.46;99782.83;1639262;86;20230;-64
2021/11/19 10:56:50;;;;;;;;;;;;;;;5.72;89.45;99767.03;1639990;87;20553;-63
2021/11/19 10:59:33;;;;;;;;;;;;;;;5.71;89.46;99770.78;1639535;86;20495;-64
2021/11/19 11:02:13;;;;;;;;;;;;;;;5.69;89.45;99759.24;1639599;87;20236;-62
2021/11/19 11:05:00;;;;;;;;;;;;;;;5.71;89.54;99758.55;1639457;85;20545;-63
2021/11/19 11:07:40;;;;;;;;;;;;;;;5.75;89.57;99750.36;1641682;86;20205;-61
2021/11/19 11:10:12;;;;;;;;;;;;;;;5.78;89.62;99754.07;1616698;87;20259;-61
2021/11/19 11:12:45;;;;;;;;;;;;;;;5.79;89.65;99761.20;1634872;86;20267;-59
2021/11/19 11:15:33;;;;;;;;;;;;;;;5.76;89.69;99757.48;1634742;86;20223;-61
2021/11/19 11:18:12;;;;;;;;;;;;;;;5.71;89.70;99745.80;1634960;88;20191;-68
2021/11/19 11:20:45;;;;;;;;;;;;;;;5.71;89.86;99744.96;1635310;86;20213;-60
2021/11/19 11:23:24;;;;;;;;;;;;;;;5.75;89.89;99738.12;1634853;87;20191;-60
2021/11/19 11:26:13;;;;;;;;;;;;;;;5.76;89.94;99738.46;1622624;86;20546;-61
2021/11/19 11:28:52;;;;;;;;;;;;;;;5.81;90.06;99728.39;1634660;88;20167;-61
2021/11/19 11:31:51;;;;;;;;;;;;;;;5.83;90.11;99748.08;1634573;86;20187;-61
2021/11/19 11:34:24;;;;;;;;;;;;;;;5.84;90.17;99741.63;1634726;86;20215;-60
2021/11/19 11:40:12;;;;;;;;;;;;;;;5.89;90.29;99741.47;1635698;86;20242;-61
2021/11/19 11:42:52;;;;;;;;;;;;;;;5.90;90.28;99735.52;1638528;88;20234;-61
2021/11/19 11:45:42;;;;;;;;;;;;;;;5.92;90.38;99739.73;1638751;88;20636;-60
2021/11/19 11:48:27;;;;;;;;;;;;;;;5.95;90.45;99734.45;1674372;86;20207;-61
2021/11/19 11:51:17;;;;;;;;;;;;;;;5.95;90.44;99735.80;1679383;85;20225;-61
2021/11/19 11:54:08;;;;;;;;;;;;;;;5.96;90.48;99734.27;1680702;85;20199;-66
2021/11/19 11:56:44;;;;;;;;;;;;;;;6.00;90.46;99734.73;1680692;85;20518;-62
2021/11/19 11:59:23;;;;;;;;;;;;;;;6.05;90.48;99728.23;1606059;88;20194;-62
2021/11/19 12:01:59;;;;;;;;;;;;;;;6.08;90.54;99731.09;1634472;88;20187;-62
2021/11/19 12:04:54;;;;;;;;;;;;;;;6.09;90.51;99724.11;1613680;88;20483;-61
2021/11/19 12:07:35;;;;;;;;;;;;;;;6.09;90.51;99723.27;1578976;90;20502;-65
2021/11/19 12:10:29;;;;;;;;;;;;;;;6.08;90.45;99720.22;1578700;90;20580;-62
2021/11/19 12:13:05;;;;;;;;;;;;;;;6.10;90.45;99723.08;1578901;90;20203;-62
2021/11/19 12:15:51;;;;;;;;;;;;;;;6.11;90.44;99715.25;1578958;89;20243;-62
2021/11/19 12:18:51;;;;;;;;;;;;;;;6.12;90.45;99726.97;1504706;93;20247;-63
2021/11/19 12:21:25;;;;;;;;;;;;;;;6.12;90.55;99721.53;1506972;93;20295;-61
2021/11/19 12:23:58;;;;;;;;;;;;;;;6.11;90.60;99726.64;1506639;95;20205;-62
2021/11/19 12:26:52;;;;;;;;;;;;;;;6.11;90.64;99723.92;1497833;94;20227;-60
2021/11/19 12:29:30;;;;;;;;;;;;;;;6.13;90.72;99715.91;1502299;92;20182;-59
2021/11/19 12:41:24;;;;;;;;;;;;;;;6.18;90.94;99708.55;1569612;90;20160;-60
2021/11/19 12:44:07;;;;;;;;;;;;;;;6.17;91.05;99702.27;1569720;90;20481;-60
2021/11/19 12:47:02;;;;;;;;;;;;;;;6.17;91.06;99695.98;1569379;90;20196;-59
2021/11/19 12:49:53;;;;;;;;;;;;;;;6.16;91.07;99701.09;1575618;91;20239;-58
2021/11/19 12:52:45;;;;;;;;;;;;;;;6.18;91.19;99701.75;1558150;91;20216;-58
2021/11/19 12:55:20;;;;;;;;;;;;;;;6.20;91.40;99702.41;1557584;91;20172;-61
2021/11/19 12:58:25;;;;;;;;;;;;;;;6.21;91.48;99699.50;1557252;90;20322;-60
2021/11/19 13:01:23;;;;;;;;;;;;;;;6.21;91.52;99705.45;1558056;90;20213;-59
2021/11/19 13:04:18;;;;;;;;;;;;;;;6.22;91.62;99704.42;1667354;85;20199;-58
2021/11/19 13:07:03;;;;;;;;;;;;;;;6.23;91.70;99705.60;1675090;85;20175;-60
2021/11/19 13:09:43;;;;;;;;;;;;;;;6.24;91.70;99703.20;1674848;86;20484;-60
2021/11/19 13:12:36;;;;;;;;;;;;;;;6.27;91.78;99699.27;1675341;85;20202;-61
2021/11/19 13:15:24;;;;;;;;;;;;;;;6.27;91.88;99693.31;1675636;86;20206;-61
2021/11/19 13:18:04;;;;;;;;;;;;;;;6.31;91.91;99697.86;1675230;86;20270;-60
2021/11/19 13:20:49;;;;;;;;;;;;;;;6.33;91.92;99708.04;1675268;86;20163;-61
2021/11/19 13:23:35;;;;;;;;;;;;;;;6.36;91.95;99702.22;1675243;85;20266;-61
2021/11/19 13:26:18;;;;;;;;;;;;;;;6.39;91.95;99703.21;1686644;84;20239;-62
2021/11/19 13:28:53;;;;;;;;;;;;;;;6.40;91.94;99698.61;1689107;84;20187;-59
2021/11/19 13:31:25;;;;;;;;;;;;;;;6.40;91.93;99700.81;1689286;84;20158;-60
2021/11/19 13:34:10;;;;;;;;;;;;;;;6.38;91.98;99696.08;1689220;85;20186;-59
2021/11/19 13:36:48;;;;;;;;;;;;;;;6.38;92.13;99692.00;1689354;84;20166;-61
2021/11/19 13:39:28;;;;;;;;;;;;;;;6.41;92.18;99702.50;1663484;85;20151;-62
2021/11/19 13:42:07;;;;;;;;;;;;;;;6.41;92.18;99714.75;1687935;85;20182;-69
2021/11/19 13:45:10;;;;;;;;;;;;;;;6.43;92.15;99711.84;1689469;85;20162;-60
2021/11/19 13:47:56;;;;;;;;;;;;;;;6.44;92.28;99706.20;1663944;84;20209;-61
2021/11/19 13:50:28;;;;;;;;;;;;;;;6.47;92.28;99705.83;1680935;85;20190;-60
2021/11/19 13:53:10;;;;;;;;;;;;;;;6.46;92.34;99703.30;1656940;87;20269;-71
2021/11/19 13:58:50;;;;;;;;;;;;;;;6.46;92.46;99697.34;1646078;87;20242;-60
2021/11/19 14:04:34;;;;;;;;;;;;;;;6.49;92.58;99705.13;1619356;89;20231;-61
2021/11/19 14:07:09;;;;;;;;;;;;;;;6.52;92.65;99696.62;1620483;89;20227;-60